sensor_id;sensor_type;location;lat;lon;timestamp;temperature;humidity
11965;DHT22;6042;41.326;19.826;2022-12-07T00:01:45;13.30;99.90
11965;DHT22;6042;41.326;19.826;2022-12-07T00:04:16;13.30;99.90
11965;DHT22;6042;41.326;19.826;2022-12-07T00:06:46;13.30;99.90
11965;DHT22;6042;41.326;19.826;2022-12-07T00:09:16;13.30;99.90
11965;DHT22;6042;41.326;19.826;2022-12-07T00:11:49;13.20;99.90
11965;DHT22;6042;41.326;19.826;2022-12-07T00:14:18;13.20;99.90
11965;DHT22;6042;41.326;19.826;2022-12-07T00:16:50;13.20;99.90
11965;DHT22;6042;41.326;19.826;2022-12-07T00:19:19;13.20;99.90
11965;DHT22;6042;41.326;19.826;2022-12-07T00:21:48;13.10;99.90
11965;DHT22;6042;41.326;19.826;2022-12-07T00:24:16;13.20;99.90
11965;DHT22;6042;41.326;19.826;2022-12-07T00:26:46;13.20;99.90
11965;DHT22;6042;41.326;19.826;2022-12-07T00:29:17;13.20;99.90
11965;DHT22;6042;41.326;19.826;2022-12-07T00:31:46;13.20;99.90
11965;DHT22;6042;41.326;19.826;2022-12-07T00:34:16;13.20;99.90
11965;DHT22;6042;41.326;19.826;2022-12-07T00:36:45;13.10;99.90
11965;DHT22;6042;41.326;19.826;2022-12-07T00:39:14;13.10;99.90
11965;DHT22;6042;41.326;19.826;2022-12-07T00:41:43;13.10;99.90
11965;DHT22;6042;41.326;19.826;2022-12-07T00:44:13;13.10;99.90
11965;DHT22;6042;41.326;19.826;2022-12-07T00:46:42;13.10;99.90
11965;DHT22;6042;41.326;19.826;2022-12-07T00:49:14;13.10;99.90
11965;DHT22;6042;41.326;19.826;2022-12-07T00:51:42;13.10;99.90
11965;DHT22;6042;41.326;19.826;2022-12-07T00:54:11;13.10;99.90
11965;DHT22;6042;41.326;19.826;2022-12-07T00:56:40;13.10;99.90
11965;DHT22;6042;41.326;19.826;2022-12-07T00:59:13;13.10;99.90
11965;DHT22;6042;41.326;19.826;2022-12-07T01:01:43;13.10;99.90
11965;DHT22;6042;41.326;19.826;2022-12-07T01:04:11;13.00;99.90
11965;DHT22;6042;41.326;19.826;2022-12-07T01:06:40;12.90;99.90
11965;DHT22;6042;41.326;19.826;2022-12-07T01:09:09;13.00;99.90
11965;DHT22;6042;41.326;19.826;2022-12-07T01:11:37;13.00;99.90
11965;DHT22;6042;41.326;19.826;2022-12-07T01:14:06;13.00;99.90
11965;DHT22;6042;41.326;19.826;2022-12-07T01:16:36;13.00;99.90
11965;DHT22;6042;41.326;19.826;2022-12-07T01:19:08;13.10;99.90
11965;DHT22;6042;41.326;19.826;2022-12-07T01:21:38;13.20;99.90
11965;DHT22;6042;41.326;19.826;2022-12-07T01:24:09;13.20;99.90
11965;DHT22;6042;41.326;19.826;2022-12-07T01:26:39;13.10;99.90
11965;DHT22;6042;41.326;19.826;2022-12-07T01:29:08;13.10;99.90
11965;DHT22;6042;41.326;19.826;2022-12-07T01:31:38;13.10;99.90
11965;DHT22;6042;41.326;19.826;2022-12-07T01:34:07;13.00;99.90
11965;DHT22;6042;41.326;19.826;2022-12-07T01:36:36;13.00;99.90
11965;DHT22;6042;41.326;19.826;2022-12-07T01:39:06;13.00;99.90
11965;DHT22;6042;41.326;19.826;2022-12-07T01:41:37;12.90;99.90
11965;DHT22;6042;41.326;19.826;2022-12-07T01:44:13;12.80;99.90
11965;DHT22;6042;41.326;19.826;2022-12-07T01:46:45;12.90;99.90
11965;DHT22;6042;41.326;19.826;2022-12-07T01:49:29;12.80;99.90
11965;DHT22;6042;41.326;19.826;2022-12-07T01:52:05;12.90;99.90
11965;DHT22;6042;41.326;19.826;2022-12-07T01:54:36;12.90;99.90
11965;DHT22;6042;41.326;19.826;2022-12-07T01:57:06;13.00;99.90
11965;DHT22;6042;41.326;19.826;2022-12-07T01:59:36;12.90;99.90
11965;DHT22;6042;41.326;19.826;2022-12-07T02:02:12;12.90;99.90
11965;DHT22;6042;41.326;19.826;2022-12-07T02:04:42;12.90;99.90
11965;DHT22;6042;41.326;19.826;2022-12-07T02:07:11;12.90;99.90
11965;DHT22;6042;41.326;19.826;2022-12-07T02:09:40;12.90;99.90
11965;DHT22;6042;41.326;19.826;2022-12-07T02:12:08;12.80;99.90
11965;DHT22;6042;41.326;19.826;2022-12-07T02:14:37;12.80;99.90
11965;DHT22;6042;41.326;19.826;2022-12-07T02:17:17;12.90;99.90
11965;DHT22;6042;41.326;19.826;2022-12-07T02:20:15;12.80;99.90
11965;DHT22;6042;41.326;19.826;2022-12-07T02:23:06;12.90;99.90
11965;DHT22;6042;41.326;19.826;2022-12-07T02:31:46;12.70;99.90
11965;DHT22;6042;41.326;19.826;2022-12-07T02:34:21;12.60;99.90
11965;DHT22;6042;41.326;19.826;2022-12-07T02:36:55;12.50;99.90
11965;DHT22;6042;41.326;19.826;2022-12-07T02:39:31;12.50;99.90
11965;DHT22;6042;41.326;19.826;2022-12-07T02:42:07;12.50;99.90
11965;DHT22;6042;41.326;19.826;2022-12-07T02:44:40;12.50;99.90
11965;DHT22;6042;41.326;19.826;2022-12-07T02:47:12;12.50;99.90
11965;DHT22;6042;41.326;19.826;2022-12-07T02:49:43;12.60;99.90
11965;DHT22;6042;41.326;19.826;2022-12-07T02:52:12;12.60;99.90
11965;DHT22;6042;41.326;19.826;2022-12-07T02:54:40;12.50;99.90
11965;DHT22;6042;41.326;19.826;2022-12-07T02:57:21;12.50;99.90
11965;DHT22;6042;41.326;19.826;2022-12-07T03:00:03;12.50;99.90
11965;DHT22;6042;41.326;19.826;2022-12-07T03:02:41;12.40;99.90
11965;DHT22;6042;41.326;19.826;2022-12-07T03:05:31;12.40;99.90
11965;DHT22;6042;41.326;19.826;2022-12-07T03:08:07;12.40;99.90
11965;DHT22;6042;41.326;19.826;2022-12-07T03:10:45;12.40;99.90
11965;DHT22;6042;41.326;19.826;2022-12-07T03:13:22;12.30;99.90
11965;DHT22;6042;41.326;19.826;2022-12-07T03:15:57;12.40;99.90
11965;DHT22;6042;41.326;19.826;2022-12-07T03:18:30;12.40;99.90
11965;DHT22;6042;41.326;19.826;2022-12-07T03:21:03;12.40;99.90
11965;DHT22;6042;41.326;19.826;2022-12-07T03:23:35;12.40;99.90
11965;DHT22;6042;41.326;19.826;2022-12-07T03:26:08;12.50;99.90
11965;DHT22;6042;41.326;19.826;2022-12-07T03:28:42;12.50;99.90
11965;DHT22;6042;41.326;19.826;2022-12-07T03:31:17;12.50;99.90
11965;DHT22;6042;41.326;19.826;2022-12-07T03:33:51;12.50;99.90
11965;DHT22;6042;41.326;19.826;2022-12-07T03:36:28;12.40;99.90
11965;DHT22;6042;41.326;19.826;2022-12-07T03:39:03;12.30;99.90
11965;DHT22;6042;41.326;19.826;2022-12-07T03:41:36;12.10;99.90
11965;DHT22;6042;41.326;19.826;2022-12-07T03:44:12;12.10;99.90
11965;DHT22;6042;41.326;19.826;2022-12-07T03:46:50;12.00;99.90
11965;DHT22;6042;41.326;19.826;2022-12-07T03:49:24;12.00;99.90
11965;DHT22;6042;41.326;19.826;2022-12-07T03:51:57;11.90;99.90
11965;DHT22;6042;41.326;19.826;2022-12-07T03:54:31;11.90;99.90
11965;DHT22;6042;41.326;19.826;2022-12-07T03:57:03;11.80;99.90
11965;DHT22;6042;41.326;19.826;2022-12-07T03:59:34;11.80;99.90
11965;DHT22;6042;41.326;19.826;2022-12-07T04:02:06;11.90;99.90
11965;DHT22;6042;41.326;19.826;2022-12-07T04:04:35;11.90;99.90
11965;DHT22;6042;41.326;19.826;2022-12-07T04:07:04;12.00;99.90
11965;DHT22;6042;41.326;19.826;2022-12-07T04:09:32;12.00;99.90
11965;DHT22;6042;41.326;19.826;2022-12-07T04:12:01;12.00;99.90
11965;DHT22;6042;41.326;19.826;2022-12-07T04:14:31;12.10;99.90
11965;DHT22;6042;41.326;19.826;2022-12-07T04:17:01;12.10;99.90
11965;DHT22;6042;41.326;19.826;2022-12-07T04:19:33;12.10;99.90
11965;DHT22;6042;41.326;19.826;2022-12-07T04:22:04;12.10;99.90
11965;DHT22;6042;41.326;19.826;2022-12-07T04:24:33;12.10;99.90
11965;DHT22;6042;41.326;19.826;2022-12-07T04:27:02;12.10;99.90
11965;DHT22;6042;41.326;19.826;2022-12-07T04:29:31;12.10;99.90
11965;DHT22;6042;41.326;19.826;2022-12-07T04:31:59;12.10;99.90
11965;DHT22;6042;41.326;19.826;2022-12-07T04:34:28;12.10;99.90
11965;DHT22;6042;41.326;19.826;2022-12-07T04:36:58;12.20;99.90
11965;DHT22;6042;41.326;19.826;2022-12-07T04:39:28;12.20;99.90
11965;DHT22;6042;41.326;19.826;2022-12-07T04:41:58;12.10;99.90
11965;DHT22;6042;41.326;19.826;2022-12-07T04:44:28;12.10;99.90
11965;DHT22;6042;41.326;19.826;2022-12-07T04:46:57;12.00;99.90
11965;DHT22;6042;41.326;19.826;2022-12-07T04:49:25;12.00;99.90
11965;DHT22;6042;41.326;19.826;2022-12-07T04:51:54;11.90;99.90
11965;DHT22;6042;41.326;19.826;2022-12-07T04:54:24;11.90;99.90
11965;DHT22;6042;41.326;19.826;2022-12-07T04:56:53;11.90;99.90
11965;DHT22;6042;41.326;19.826;2022-12-07T04:59:21;11.90;99.90
11965;DHT22;6042;41.326;19.826;2022-12-07T05:01:50;11.90;99.90
11965;DHT22;6042;41.326;19.826;2022-12-07T05:04:18;12.00;99.90
11965;DHT22;6042;41.326;19.826;2022-12-07T05:06:47;12.00;99.90
11965;DHT22;6042;41.326;19.826;2022-12-07T05:09:16;12.00;99.90
11965;DHT22;6042;41.326;19.826;2022-12-07T05:11:46;12.00;99.90
11965;DHT22;6042;41.326;19.826;2022-12-07T05:14:16;12.00;99.90
11965;DHT22;6042;41.326;19.826;2022-12-07T05:16:48;12.00;99.90
11965;DHT22;6042;41.326;19.826;2022-12-07T05:19:19;11.90;99.90
11965;DHT22;6042;41.326;19.826;2022-12-07T05:21:48;11.90;99.90
11965;DHT22;6042;41.326;19.826;2022-12-07T05:24:17;11.90;99.90
11965;DHT22;6042;41.326;19.826;2022-12-07T05:26:47;11.90;99.90
11965;DHT22;6042;41.326;19.826;2022-12-07T05:29:17;11.90;99.90
11965;DHT22;6042;41.326;19.826;2022-12-07T05:31:45;11.90;99.90
11965;DHT22;6042;41.326;19.826;2022-12-07T05:34:14;11.80;99.90
11965;DHT22;6042;41.326;19.826;2022-12-07T05:36:43;11.80;99.90
11965;DHT22;6042;41.326;19.826;2022-12-07T05:39:11;11.80;99.90
11965;DHT22;6042;41.326;19.826;2022-12-07T05:41:40;11.80;99.90
11965;DHT22;6042;41.326;19.826;2022-12-07T05:44:28;11.80;99.90
11965;DHT22;6042;41.326;19.826;2022-12-07T05:46:56;11.80;99.90
11965;DHT22;6042;41.326;19.826;2022-12-07T05:49:26;11.80;99.90
11965;DHT22;6042;41.326;19.826;2022-12-07T05:52:00;11.70;99.90
11965;DHT22;6042;41.326;19.826;2022-12-07T05:54:29;11.80;99.90
11965;DHT22;6042;41.326;19.826;2022-12-07T05:56:58;11.80;99.90
11965;DHT22;6042;41.326;19.826;2022-12-07T05:59:28;11.70;99.90
11965;DHT22;6042;41.326;19.826;2022-12-07T06:01:58;11.70;99.90
11965;DHT22;6042;41.326;19.826;2022-12-07T06:04:29;11.70;99.90
11965;DHT22;6042;41.326;19.826;2022-12-07T06:06:58;11.60;99.90
11965;DHT22;6042;41.326;19.826;2022-12-07T06:09:28;11.70;99.90
11965;DHT22;6042;41.326;19.826;2022-12-07T06:11:57;11.80;99.90
11965;DHT22;6042;41.326;19.826;2022-12-07T06:14:41;11.80;99.90
11965;DHT22;6042;41.326;19.826;2022-12-07T06:17:11;11.80;99.90
11965;DHT22;6042;41.326;19.826;2022-12-07T06:19:40;11.80;99.90
11965;DHT22;6042;41.326;19.826;2022-12-07T06:22:09;11.80;99.90
11965;DHT22;6042;41.326;19.826;2022-12-07T06:24:39;11.80;99.90
11965;DHT22;6042;41.326;19.826;2022-12-07T06:27:08;11.90;99.90
11965;DHT22;6042;41.326;19.826;2022-12-07T06:29:36;11.90;99.90
11965;DHT22;6042;41.326;19.826;2022-12-07T06:32:06;12.00;99.90
11965;DHT22;6042;41.326;19.826;2022-12-07T06:34:35;12.00;99.90
11965;DHT22;6042;41.326;19.826;2022-12-07T06:37:04;12.10;99.90
11965;DHT22;6042;41.326;19.826;2022-12-07T06:39:35;12.10;99.90
11965;DHT22;6042;41.326;19.826;2022-12-07T06:42:03;12.10;99.90
11965;DHT22;6042;41.326;19.826;2022-12-07T06:44:32;12.10;99.90
11965;DHT22;6042;41.326;19.826;2022-12-07T06:47:01;12.10;99.90
11965;DHT22;6042;41.326;19.826;2022-12-07T06:49:51;12.10;99.90
11965;DHT22;6042;41.326;19.826;2022-12-07T06:52:20;12.20;99.90
11965;DHT22;6042;41.326;19.826;2022-12-07T06:54:48;12.30;99.90
11965;DHT22;6042;41.326;19.826;2022-12-07T06:57:17;12.40;99.90
11965;DHT22;6042;41.326;19.826;2022-12-07T06:59:47;12.50;99.90
11965;DHT22;6042;41.326;19.826;2022-12-07T07:02:15;12.50;99.90
11965;DHT22;6042;41.326;19.826;2022-12-07T07:04:45;12.60;99.90
11965;DHT22;6042;41.326;19.826;2022-12-07T07:07:15;12.70;99.90
11965;DHT22;6042;41.326;19.826;2022-12-07T07:09:43;12.80;99.90
11965;DHT22;6042;41.326;19.826;2022-12-07T07:12:12;12.80;99.90
11965;DHT22;6042;41.326;19.826;2022-12-07T07:14:41;12.80;99.90
11965;DHT22;6042;41.326;19.826;2022-12-07T07:17:10;13.00;99.90
11965;DHT22;6042;41.326;19.826;2022-12-07T07:19:39;13.10;99.90
11965;DHT22;6042;41.326;19.826;2022-12-07T07:22:07;13.10;99.90
11965;DHT22;6042;41.326;19.826;2022-12-07T07:24:37;13.20;99.90
11965;DHT22;6042;41.326;19.826;2022-12-07T07:27:06;13.40;99.90
11965;DHT22;6042;41.326;19.826;2022-12-07T07:29:35;13.50;99.90
11965;DHT22;6042;41.326;19.826;2022-12-07T07:32:03;13.70;99.90
11965;DHT22;6042;41.326;19.826;2022-12-07T07:34:34;13.80;99.90
11965;DHT22;6042;41.326;19.826;2022-12-07T07:37:03;13.90;99.90
11965;DHT22;6042;41.326;19.826;2022-12-07T07:39:31;14.00;99.90
11965;DHT22;6042;41.326;19.826;2022-12-07T07:42:02;14.10;99.90
11965;DHT22;6042;41.326;19.826;2022-12-07T07:44:32;14.20;99.90
11965;DHT22;6042;41.326;19.826;2022-12-07T07:47:02;14.20;99.90
11965;DHT22;6042;41.326;19.826;2022-12-07T07:49:30;14.20;99.90
11965;DHT22;6042;41.326;19.826;2022-12-07T07:51:59;14.20;99.90
11965;DHT22;6042;41.326;19.826;2022-12-07T07:54:28;14.30;99.90
11965;DHT22;6042;41.326;19.826;2022-12-07T07:56:57;14.50;99.90
11965;DHT22;6042;41.326;19.826;2022-12-07T07:59:27;14.60;99.90
11965;DHT22;6042;41.326;19.826;2022-12-07T08:01:55;14.80;99.90
11965;DHT22;6042;41.326;19.826;2022-12-07T08:04:30;14.90;99.90
11965;DHT22;6042;41.326;19.826;2022-12-07T08:07:03;14.90;99.90
11965;DHT22;6042;41.326;19.826;2022-12-07T08:09:31;14.90;99.90
11965;DHT22;6042;41.326;19.826;2022-12-07T08:12:00;14.90;99.90
11965;DHT22;6042;41.326;19.826;2022-12-07T08:14:30;14.90;99.90
11965;DHT22;6042;41.326;19.826;2022-12-07T08:16:59;15.00;99.90
11965;DHT22;6042;41.326;19.826;2022-12-07T08:19:27;15.10;99.90
11965;DHT22;6042;41.326;19.826;2022-12-07T08:21:56;15.10;99.90
11965;DHT22;6042;41.326;19.826;2022-12-07T08:24:25;15.20;99.90
11965;DHT22;6042;41.326;19.826;2022-12-07T08:26:53;15.20;99.90
11965;DHT22;6042;41.326;19.826;2022-12-07T08:29:22;15.20;99.90
11965;DHT22;6042;41.326;19.826;2022-12-07T08:31:52;15.20;99.90
11965;DHT22;6042;41.326;19.826;2022-12-07T08:34:21;15.10;99.90
11965;DHT22;6042;41.326;19.826;2022-12-07T08:36:49;15.20;99.90
11965;DHT22;6042;41.326;19.826;2022-12-07T08:39:19;15.20;99.90
11965;DHT22;6042;41.326;19.826;2022-12-07T08:41:58;15.10;99.90
11965;DHT22;6042;41.326;19.826;2022-12-07T08:44:27;15.30;99.90
11965;DHT22;6042;41.326;19.826;2022-12-07T08:47:00;15.20;99.90
11965;DHT22;6042;41.326;19.826;2022-12-07T08:49:33;15.10;99.90
11965;DHT22;6042;41.326;19.826;2022-12-07T08:52:05;15.00;99.90
11965;DHT22;6042;41.326;19.826;2022-12-07T08:54:36;15.00;99.90
11965;DHT22;6042;41.326;19.826;2022-12-07T08:57:07;15.00;99.90
11965;DHT22;6042;41.326;19.826;2022-12-07T08:59:37;15.10;99.90
11965;DHT22;6042;41.326;19.826;2022-12-07T09:02:07;15.10;99.90
11965;DHT22;6042;41.326;19.826;2022-12-07T09:04:36;15.20;99.90
11965;DHT22;6042;41.326;19.826;2022-12-07T09:07:05;15.20;99.90
11965;DHT22;6042;41.326;19.826;2022-12-07T09:09:34;15.30;99.90
11965;DHT22;6042;41.326;19.826;2022-12-07T09:12:03;15.30;99.90
11965;DHT22;6042;41.326;19.826;2022-12-07T09:14:31;15.30;99.90
11965;DHT22;6042;41.326;19.826;2022-12-07T09:17:07;15.40;99.90
11965;DHT22;6042;41.326;19.826;2022-12-07T09:19:36;15.40;99.90
11965;DHT22;6042;41.326;19.826;2022-12-07T09:22:05;15.50;99.90
11965;DHT22;6042;41.326;19.826;2022-12-07T09:24:34;15.60;99.90
11965;DHT22;6042;41.326;19.826;2022-12-07T09:27:03;15.70;99.90
11965;DHT22;6042;41.326;19.826;2022-12-07T09:29:32;15.70;99.90
11965;DHT22;6042;41.326;19.826;2022-12-07T09:32:00;15.70;99.90
11965;DHT22;6042;41.326;19.826;2022-12-07T09:34:38;15.70;99.90
11965;DHT22;6042;41.326;19.826;2022-12-07T09:37:07;15.80;99.90
11965;DHT22;6042;41.326;19.826;2022-12-07T09:39:37;15.80;99.90
11965;DHT22;6042;41.326;19.826;2022-12-07T09:42:27;15.90;99.90
11965;DHT22;6042;41.326;19.826;2022-12-07T09:44:57;15.90;99.90
11965;DHT22;6042;41.326;19.826;2022-12-07T09:47:27;16.00;99.90
11965;DHT22;6042;41.326;19.826;2022-12-07T09:50:04;16.00;99.90
11965;DHT22;6042;41.326;19.826;2022-12-07T09:52:33;16.00;99.90
11965;DHT22;6042;41.326;19.826;2022-12-07T09:55:11;16.00;99.90
11965;DHT22;6042;41.326;19.826;2022-12-07T09:57:40;16.00;99.90
11965;DHT22;6042;41.326;19.826;2022-12-07T10:00:14;16.10;99.90
11965;DHT22;6042;41.326;19.826;2022-12-07T10:02:47;16.30;99.90
11965;DHT22;6042;41.326;19.826;2022-12-07T10:05:23;16.50;99.90
11965;DHT22;6042;41.326;19.826;2022-12-07T10:07:52;16.60;99.90
11965;DHT22;6042;41.326;19.826;2022-12-07T10:10:25;16.70;99.90
11965;DHT22;6042;41.326;19.826;2022-12-07T10:12:58;16.90;99.90
11965;DHT22;6042;41.326;19.826;2022-12-07T10:15:48;17.20;99.90
11965;DHT22;6042;41.326;19.826;2022-12-07T10:18:28;17.40;99.90
11965;DHT22;6042;41.326;19.826;2022-12-07T10:21:11;17.70;99.90
11965;DHT22;6042;41.326;19.826;2022-12-07T10:23:41;18.00;99.90
11965;DHT22;6042;41.326;19.826;2022-12-07T10:26:25;18.00;99.70
11965;DHT22;6042;41.326;19.826;2022-12-07T10:28:55;18.10;99.40
11965;DHT22;6042;41.326;19.826;2022-12-07T10:31:24;18.30;99.30
11965;DHT22;6042;41.326;19.826;2022-12-07T10:33:55;18.40;98.80
11965;DHT22;6042;41.326;19.826;2022-12-07T10:36:29;18.50;98.80
11965;DHT22;6042;41.326;19.826;2022-12-07T10:39:10;18.60;99.20
11965;DHT22;6042;41.326;19.826;2022-12-07T10:41:53;18.70;98.70
11965;DHT22;6042;41.326;19.826;2022-12-07T10:44:25;18.90;98.10
11965;DHT22;6042;41.326;19.826;2022-12-07T10:50:18;18.60;97.90
11965;DHT22;6042;41.326;19.826;2022-12-07T10:53:19;18.50;98.30
11965;DHT22;6042;41.326;19.826;2022-12-07T10:56:11;18.50;98.70
11965;DHT22;6042;41.326;19.826;2022-12-07T10:58:56;18.40;98.60
11965;DHT22;6042;41.326;19.826;2022-12-07T11:01:32;18.20;98.30
11965;DHT22;6042;41.326;19.826;2022-12-07T11:04:21;18.00;98.70
11965;DHT22;6042;41.326;19.826;2022-12-07T11:06:57;17.90;99.00
11965;DHT22;6042;41.326;19.826;2022-12-07T11:09:51;17.90;98.90
11965;DHT22;6042;41.326;19.826;2022-12-07T11:12:47;17.90;99.50
11965;DHT22;6042;41.326;19.826;2022-12-07T11:15:23;18.10;99.10
11965;DHT22;6042;41.326;19.826;2022-12-07T11:17:59;18.30;98.70
11965;DHT22;6042;41.326;19.826;2022-12-07T11:20:37;18.50;98.90
11965;DHT22;6042;41.326;19.826;2022-12-07T11:23:16;18.70;98.90
11965;DHT22;6042;41.326;19.826;2022-12-07T11:25:54;18.90;98.10
11965;DHT22;6042;41.326;19.826;2022-12-07T11:28:41;19.00;97.50
11965;DHT22;6042;41.326;19.826;2022-12-07T11:31:20;19.30;96.80
11965;DHT22;6042;41.326;19.826;2022-12-07T11:34:00;19.60;97.10
11965;DHT22;6042;41.326;19.826;2022-12-07T11:36:37;19.70;96.30
11965;DHT22;6042;41.326;19.826;2022-12-07T11:39:15;19.90;95.60
11965;DHT22;6042;41.326;19.826;2022-12-07T11:41:48;20.10;95.30
11965;DHT22;6042;41.326;19.826;2022-12-07T11:44:27;20.30;95.30
11965;DHT22;6042;41.326;19.826;2022-12-07T11:47:03;20.40;94.60
11965;DHT22;6042;41.326;19.826;2022-12-07T11:49:42;20.60;94.30
11965;DHT22;6042;41.326;19.826;2022-12-07T11:52:20;20.70;94.30
11965;DHT22;6042;41.326;19.826;2022-12-07T11:54:52;21.10;93.80
11965;DHT22;6042;41.326;19.826;2022-12-07T11:57:28;21.40;93.20
11965;DHT22;6042;41.326;19.826;2022-12-07T12:00:05;22.10;92.30
11965;DHT22;6042;41.326;19.826;2022-12-07T12:02:38;23.20;90.90
11965;DHT22;6042;41.326;19.826;2022-12-07T12:05:15;24.10;89.60
11965;DHT22;6042;41.326;19.826;2022-12-07T12:07:45;25.20;85.50
11965;DHT22;6042;41.326;19.826;2022-12-07T12:10:45;26.20;82.10
11965;DHT22;6042;41.326;19.826;2022-12-07T12:13:58;27.10;78.50
11965;DHT22;6042;41.326;19.826;2022-12-07T12:17:12;27.60;76.20
11965;DHT22;6042;41.326;19.826;2022-12-07T12:19:58;28.60;71.30
11965;DHT22;6042;41.326;19.826;2022-12-07T12:22:36;28.80;69.30
11965;DHT22;6042;41.326;19.826;2022-12-07T12:25:07;29.10;66.90
11965;DHT22;6042;41.326;19.826;2022-12-07T12:27:46;29.30;66.70
11965;DHT22;6042;41.326;19.826;2022-12-07T12:30:42;29.40;64.20
11965;DHT22;6042;41.326;19.826;2022-12-07T12:33:16;29.20;63.20
11965;DHT22;6042;41.326;19.826;2022-12-07T12:35:46;28.90;63.60
11965;DHT22;6042;41.326;19.826;2022-12-07T12:38:48;27.70;65.60
11965;DHT22;6042;41.326;19.826;2022-12-07T12:41:53;26.60;68.00
11965;DHT22;6042;41.326;19.826;2022-12-07T12:47:57;26.50;67.50
11965;DHT22;6042;41.326;19.826;2022-12-07T12:50:28;24.80;70.70
11965;DHT22;6042;41.326;19.826;2022-12-07T12:53:04;23.40;75.00
11965;DHT22;6042;41.326;19.826;2022-12-07T12:59:24;21.40;80.50
11965;DHT22;6042;41.326;19.826;2022-12-07T13:01:56;20.70;82.40
11965;DHT22;6042;41.326;19.826;2022-12-07T13:04:40;20.10;87.30
11965;DHT22;6042;41.326;19.826;2022-12-07T13:10:24;19.40;88.80
11965;DHT22;6042;41.326;19.826;2022-12-07T13:12:58;19.30;88.30
11965;DHT22;6042;41.326;19.826;2022-12-07T13:15:37;19.20;89.70
11965;DHT22;6042;41.326;19.826;2022-12-07T13:18:24;19.10;90.40
11965;DHT22;6042;41.326;19.826;2022-12-07T13:20:55;19.00;91.00
11965;DHT22;6042;41.326;19.826;2022-12-07T13:23:29;19.00;92.30
11965;DHT22;6042;41.326;19.826;2022-12-07T13:26:15;19.00;91.80
11965;DHT22;6042;41.326;19.826;2022-12-07T13:28:46;19.00;91.90
11965;DHT22;6042;41.326;19.826;2022-12-07T13:31:34;18.90;92.20
11965;DHT22;6042;41.326;19.826;2022-12-07T13:34:04;19.00;91.80
11965;DHT22;6042;41.326;19.826;2022-12-07T13:36:36;19.10;91.40
11965;DHT22;6042;41.326;19.826;2022-12-07T13:39:18;19.00;91.50
11965;DHT22;6042;41.326;19.826;2022-12-07T13:41:50;18.90;92.40
11965;DHT22;6042;41.326;19.826;2022-12-07T13:44:20;18.90;92.00
11965;DHT22;6042;41.326;19.826;2022-12-07T13:46:55;18.70;92.90
11965;DHT22;6042;41.326;19.826;2022-12-07T13:49:28;18.70;93.10
11965;DHT22;6042;41.326;19.826;2022-12-07T13:52:14;18.50;93.30
11965;DHT22;6042;41.326;19.826;2022-12-07T13:54:47;18.50;94.20
11965;DHT22;6042;41.326;19.826;2022-12-07T13:57:44;18.50;93.80
11965;DHT22;6042;41.326;19.826;2022-12-07T14:00:17;18.50;93.70
11965;DHT22;6042;41.326;19.826;2022-12-07T14:02:57;18.40;95.30
11965;DHT22;6042;41.326;19.826;2022-12-07T14:05:28;18.30;95.70
11965;DHT22;6042;41.326;19.826;2022-12-07T14:07:58;18.30;95.20
11965;DHT22;6042;41.326;19.826;2022-12-07T14:10:30;18.30;95.20
11965;DHT22;6042;41.326;19.826;2022-12-07T14:13:01;18.10;96.30
11965;DHT22;6042;41.326;19.826;2022-12-07T14:15:32;18.00;97.50
11965;DHT22;6042;41.326;19.826;2022-12-07T14:18:03;17.90;97.60
11965;DHT22;6042;41.326;19.826;2022-12-07T14:20:33;17.70;98.00
11965;DHT22;6042;41.326;19.826;2022-12-07T14:23:03;17.50;99.10
11965;DHT22;6042;41.326;19.826;2022-12-07T14:25:45;17.40;99.60
11965;DHT22;6042;41.326;19.826;2022-12-07T14:28:27;17.20;99.90
11965;DHT22;6042;41.326;19.826;2022-12-07T14:30:56;17.00;99.90
11965;DHT22;6042;41.326;19.826;2022-12-07T14:33:27;16.90;99.90
11965;DHT22;6042;41.326;19.826;2022-12-07T14:35:56;16.90;99.90
11965;DHT22;6042;41.326;19.826;2022-12-07T14:38:25;16.80;99.90
11965;DHT22;6042;41.326;19.826;2022-12-07T14:40:55;16.80;99.90
11965;DHT22;6042;41.326;19.826;2022-12-07T14:43:46;16.70;99.90
11965;DHT22;6042;41.326;19.826;2022-12-07T14:46:34;16.70;99.90
11965;DHT22;6042;41.326;19.826;2022-12-07T14:49:05;16.50;99.90
11965;DHT22;6042;41.326;19.826;2022-12-07T14:51:54;16.40;99.90
11965;DHT22;6042;41.326;19.826;2022-12-07T14:54:42;16.20;99.90
11965;DHT22;6042;41.326;19.826;2022-12-07T14:57:12;16.20;99.90
11965;DHT22;6042;41.326;19.826;2022-12-07T14:59:41;16.10;99.90
11965;DHT22;6042;41.326;19.826;2022-12-07T15:02:12;16.20;99.90
11965;DHT22;6042;41.326;19.826;2022-12-07T15:04:43;16.10;99.90
11965;DHT22;6042;41.326;19.826;2022-12-07T15:07:16;16.20;99.90
11965;DHT22;6042;41.326;19.826;2022-12-07T15:09:46;16.10;99.90
11965;DHT22;6042;41.326;19.826;2022-12-07T15:12:15;16.00;99.90
11965;DHT22;6042;41.326;19.826;2022-12-07T15:14:44;16.00;99.90
11965;DHT22;6042;41.326;19.826;2022-12-07T15:17:13;15.90;99.90
11965;DHT22;6042;41.326;19.826;2022-12-07T15:19:57;16.00;99.90
11965;DHT22;6042;41.326;19.826;2022-12-07T15:22:26;15.80;99.90
11965;DHT22;6042;41.326;19.826;2022-12-07T15:25:01;15.70;99.90
11965;DHT22;6042;41.326;19.826;2022-12-07T15:27:31;15.60;99.90
11965;DHT22;6042;41.326;19.826;2022-12-07T15:30:00;15.40;99.90
11965;DHT22;6042;41.326;19.826;2022-12-07T15:32:29;15.30;99.90
11965;DHT22;6042;41.326;19.826;2022-12-07T15:34:59;15.30;99.90
11965;DHT22;6042;41.326;19.826;2022-12-07T15:37:29;15.20;99.90
11965;DHT22;6042;41.326;19.826;2022-12-07T15:39:57;15.20;99.90
11965;DHT22;6042;41.326;19.826;2022-12-07T15:42:33;15.10;99.90
11965;DHT22;6042;41.326;19.826;2022-12-07T15:45:04;15.10;99.90
11965;DHT22;6042;41.326;19.826;2022-12-07T15:47:35;15.10;99.90
11965;DHT22;6042;41.326;19.826;2022-12-07T15:50:25;15.10;99.90
11965;DHT22;6042;41.326;19.826;2022-12-07T15:52:54;15.20;99.90
11965;DHT22;6042;41.326;19.826;2022-12-07T15:55:22;15.20;99.90
11965;DHT22;6042;41.326;19.826;2022-12-07T15:57:51;15.20;99.90
11965;DHT22;6042;41.326;19.826;2022-12-07T16:00:20;15.10;99.90
11965;DHT22;6042;41.326;19.826;2022-12-07T16:02:49;15.10;99.90
11965;DHT22;6042;41.326;19.826;2022-12-07T16:05:20;15.00;99.90
11965;DHT22;6042;41.326;19.826;2022-12-07T16:07:50;15.00;99.90
11965;DHT22;6042;41.326;19.826;2022-12-07T16:10:20;15.00;99.90
11965;DHT22;6042;41.326;19.826;2022-12-07T16:12:48;15.00;99.90
11965;DHT22;6042;41.326;19.826;2022-12-07T16:15:17;14.90;99.90
11965;DHT22;6042;41.326;19.826;2022-12-07T16:17:50;14.90;99.90
11965;DHT22;6042;41.326;19.826;2022-12-07T16:20:19;15.00;99.90
11965;DHT22;6042;41.326;19.826;2022-12-07T16:22:52;15.00;99.90
11965;DHT22;6042;41.326;19.826;2022-12-07T16:25:21;15.00;99.90
11965;DHT22;6042;41.326;19.826;2022-12-07T16:27:50;15.00;99.90